createdAt,value
2018-10-05T00:01:00.950Z,10.17
2018-10-05T00:03:29.222Z,9.30
2018-10-05T00:05:58.958Z,9.47
2018-10-05T00:08:30.450Z,11.85
2018-10-05T00:10:58.916Z,11.93
2018-10-05T00:13:29.297Z,10.73
2018-10-05T00:15:57.605Z,9.00
2018-10-05T00:18:25.890Z,8.75
2018-10-05T00:20:54.258Z,12.60
2018-10-05T00:23:22.605Z,9.30
2018-10-05T00:25:50.941Z,8.87
2018-10-05T00:28:19.270Z,10.10
2018-10-05T00:30:47.816Z,8.30
2018-10-05T00:33:16.073Z,9.77
2018-10-05T00:35:44.310Z,11.97
2018-10-05T00:38:12.582Z,8.50
2018-10-05T00:40:40.889Z,9.90
2018-10-05T00:43:09.176Z,9.15
2018-10-05T00:45:37.451Z,9.70
2018-10-05T00:48:05.754Z,9.73
2018-10-05T00:50:34.043Z,8.83
2018-10-05T00:53:05.294Z,7.83
2018-10-05T00:55:33.556Z,11.07
2018-10-05T00:58:01.924Z,10.30
2018-10-05T01:00:30.323Z,8.57
2018-10-05T01:02:58.574Z,8.47
2018-10-05T01:05:27.077Z,8.73
2018-10-05T01:07:55.310Z,9.87
2018-10-05T01:15:17.029Z,6.67
2018-10-05T01:17:45.268Z,9.40
2018-10-05T01:20:13.512Z,10.47
2018-10-05T01:22:41.802Z,9.20
2018-10-05T01:25:10.134Z,5.53
2018-10-05T01:32:37.851Z,7.40
2018-10-05T01:35:06.107Z,12.73
2018-10-05T01:37:34.298Z,9.97
2018-10-05T01:40:02.878Z,7.30
2018-10-05T01:42:31.714Z,9.13
2018-10-05T01:45:00.278Z,6.67
2018-10-05T01:47:28.852Z,12.40
2018-10-05T01:49:57.450Z,16.57
2018-10-05T01:52:25.681Z,12.17
2018-10-05T01:54:54.027Z,9.80
2018-10-05T01:57:22.260Z,6.87
2018-10-05T01:59:50.525Z,9.30
2018-10-05T02:02:18.798Z,9.03
2018-10-05T02:04:47.118Z,10.43
2018-10-05T02:07:15.488Z,7.93
2018-10-05T02:09:43.814Z,9.37
2018-10-05T02:12:13.433Z,8.90
2018-10-05T02:14:41.677Z,11.93
2018-10-05T02:17:10.096Z,7.00
2018-10-05T02:19:38.429Z,10.83
2018-10-05T02:22:06.858Z,5.87
2018-10-05T02:24:35.137Z,10.55
2018-10-05T02:27:03.486Z,6.97
2018-10-05T02:29:31.749Z,7.17
2018-10-05T02:32:00.012Z,8.47
2018-10-05T02:34:28.286Z,11.43
2018-10-05T02:36:56.509Z,9.17
2018-10-05T02:39:24.826Z,10.50
2018-10-05T02:41:53.121Z,7.63
2018-10-05T02:44:21.466Z,9.57
2018-10-05T02:46:49.693Z,7.35
2018-10-05T02:49:17.961Z,9.33
2018-10-05T02:51:46.371Z,9.50
2018-10-05T02:54:14.685Z,8.27
2018-10-05T02:56:42.959Z,9.87
2018-10-05T02:59:11.201Z,5.70
2018-10-05T03:01:50.805Z,9.28
2018-10-05T03:04:19.061Z,14.17
2018-10-05T03:06:47.259Z,8.43
2018-10-05T03:09:15.494Z,10.78
2018-10-05T03:11:43.774Z,10.57
2018-10-05T03:14:12.114Z,10.63
2018-10-05T03:16:40.405Z,8.57
2018-10-05T03:24:01.701Z,8.13
2018-10-05T03:26:29.970Z,9.20
2018-10-05T03:28:58.601Z,14.77
2018-10-05T03:31:26.905Z,9.17
2018-10-05T03:33:55.214Z,8.40
2018-10-05T03:36:24.365Z,7.27
2018-10-05T03:38:52.701Z,11.03
2018-10-05T03:41:21.083Z,7.90
2018-10-05T03:43:49.406Z,10.20
2018-10-05T03:46:17.737Z,7.90
2018-10-05T03:48:46.035Z,12.43
2018-10-05T03:51:14.282Z,10.53
2018-10-05T03:53:42.894Z,8.38
2018-10-05T03:56:11.154Z,11.00
2018-10-05T03:58:39.350Z,10.37
2018-10-05T04:01:07.650Z,9.23
2018-10-05T04:03:35.959Z,13.90
2018-10-05T04:06:04.457Z,7.00
2018-10-05T04:08:32.761Z,9.53
2018-10-05T04:11:01.035Z,7.47
2018-10-05T04:13:29.385Z,8.27
2018-10-05T04:15:58.691Z,13.07
2018-10-05T04:18:27.046Z,10.20
2018-10-05T04:20:55.337Z,11.60
2018-10-05T04:23:23.695Z,12.43
2018-10-05T04:25:51.997Z,13.33
2018-10-05T04:28:20.307Z,10.00
2018-10-05T04:30:48.759Z,9.90
2018-10-05T04:33:17.014Z,13.70
2018-10-05T04:35:45.297Z,11.33
2018-10-05T04:38:13.609Z,7.13
2018-10-05T04:40:42.129Z,13.63
2018-10-05T04:43:10.599Z,13.10
2018-10-05T04:45:38.887Z,7.58
2018-10-05T04:48:07.083Z,6.83
2018-10-05T04:50:35.390Z,8.70
2018-10-05T04:53:03.621Z,11.63
2018-10-05T04:57:53.838Z,8.23
2018-10-05T05:00:22.058Z,8.03
2018-10-05T05:02:50.306Z,4.57
2018-10-05T05:05:18.546Z,10.70
2018-10-05T05:07:46.822Z,10.48
2018-10-05T05:10:15.113Z,11.10
2018-10-05T05:12:43.473Z,8.43
2018-10-05T05:15:11.706Z,7.37
2018-10-05T05:17:40.223Z,11.93
2018-10-05T05:20:08.511Z,8.70
2018-10-05T05:22:36.874Z,7.97
2018-10-05T05:25:05.215Z,11.47
2018-10-05T05:27:33.521Z,12.10
2018-10-05T05:30:03.523Z,10.03
2018-10-05T05:32:31.717Z,11.37
2018-10-05T05:34:59.978Z,13.70
2018-10-05T05:37:28.365Z,8.63
2018-10-05T05:39:56.637Z,11.57
2018-10-05T05:42:25.178Z,10.57
2018-10-05T05:44:53.439Z,11.53
2018-10-05T05:47:21.817Z,10.70
2018-10-05T05:49:50.186Z,13.77
2018-10-05T05:52:19.330Z,12.80
2018-10-05T05:54:47.727Z,9.70
2018-10-05T05:57:16.006Z,9.97
2018-10-05T05:59:44.360Z,14.50
2018-10-05T06:02:18.982Z,10.80
2018-10-05T06:04:47.398Z,10.17
2018-10-05T06:07:16.004Z,17.87
2018-10-05T06:09:44.494Z,11.22
2018-10-05T06:12:12.994Z,10.03
2018-10-05T06:14:41.568Z,13.25
2018-10-05T06:17:10.090Z,12.83
2018-10-05T06:19:39.599Z,8.37
2018-10-05T06:22:08.079Z,9.90
2018-10-05T06:24:36.506Z,11.57
2018-10-05T06:27:05.110Z,9.65
2018-10-05T06:29:33.709Z,13.23
2018-10-05T06:32:02.119Z,10.43
2018-10-05T06:34:30.749Z,12.23
2018-10-05T06:36:59.320Z,9.50
2018-10-05T06:39:27.644Z,13.50
2018-10-05T06:41:56.090Z,9.40
2018-10-05T06:44:24.296Z,11.07
2018-10-05T06:46:52.605Z,14.23
2018-10-05T06:49:21.377Z,9.47
2018-10-05T06:51:49.678Z,15.13
2018-10-05T06:54:17.925Z,14.53
2018-10-05T06:56:46.172Z,10.63
2018-10-05T06:59:15.288Z,13.13
2018-10-05T07:01:43.551Z,14.17
2018-10-05T07:04:11.785Z,13.07
2018-10-05T07:06:40.081Z,12.23
2018-10-05T07:09:08.872Z,11.10
2018-10-05T07:11:37.353Z,11.83
2018-10-05T07:14:05.797Z,9.07
2018-10-05T07:16:34.288Z,8.33
2018-10-05T07:19:02.615Z,12.23
2018-10-05T07:21:30.960Z,11.73
2018-10-05T07:23:59.125Z,8.93
2018-10-05T07:26:27.522Z,10.93
2018-10-05T07:28:55.811Z,12.10
2018-10-05T07:31:24.017Z,11.27
2018-10-05T07:33:52.409Z,13.40
2018-10-05T07:36:20.599Z,10.77
2018-10-05T07:38:48.992Z,15.87
2018-10-05T07:41:17.246Z,11.17
2018-10-05T07:43:45.414Z,11.20
2018-10-05T07:46:13.617Z,9.10
2018-10-05T07:48:41.833Z,9.53
2018-10-05T07:51:10.381Z,12.37
2018-10-05T07:53:38.714Z,11.43
2018-10-05T07:57:56.701Z,9.87
2018-10-05T08:00:25.043Z,11.13
2018-10-05T08:02:53.253Z,10.27
2018-10-05T08:05:21.472Z,9.90
2018-10-05T08:07:49.700Z,5.03
2018-10-05T08:10:19.246Z,7.77
2018-10-05T08:12:47.502Z,7.33
2018-10-05T08:15:15.733Z,9.15
2018-10-05T08:17:43.968Z,9.70
2018-10-05T08:20:12.165Z,9.40
2018-10-05T08:22:40.421Z,8.15
2018-10-05T08:25:08.691Z,10.23
2018-10-05T08:27:37.157Z,10.03
2018-10-05T08:30:06.508Z,5.87
2018-10-05T08:32:36.474Z,7.58
2018-10-05T08:35:04.805Z,8.88
2018-10-05T08:37:33.025Z,8.55
2018-10-05T08:40:01.423Z,6.28
2018-10-05T08:42:29.797Z,9.43
2018-10-05T08:44:58.073Z,6.97
2018-10-05T08:47:26.317Z,9.55
2018-10-05T08:49:54.607Z,7.62
2018-10-05T08:52:23.202Z,6.80
2018-10-05T08:54:51.536Z,9.80
2018-10-05T08:57:19.801Z,7.72
2018-10-05T08:59:48.133Z,6.15
2018-10-05T09:02:16.505Z,8.18
2018-10-05T09:04:44.750Z,7.15
2018-10-05T09:07:12.951Z,6.10
2018-10-05T09:09:41.367Z,6.20
2018-10-05T09:12:10.506Z,8.50
2018-10-05T09:14:38.949Z,7.45
2018-10-05T09:17:07.284Z,6.22
2018-10-05T09:19:35.566Z,4.13
2018-10-05T09:22:05.973Z,5.05
2018-10-05T09:24:34.158Z,6.00
2018-10-05T09:27:02.465Z,7.22
2018-10-05T09:29:30.958Z,5.12
2018-10-05T09:31:59.743Z,4.62
2018-10-05T09:34:29.508Z,4.78
2018-10-05T09:36:57.791Z,6.20
2018-10-05T09:39:26.133Z,6.65
2018-10-05T09:41:54.336Z,7.22
2018-10-05T09:44:22.622Z,5.17
2018-10-05T09:46:50.909Z,5.17
2018-10-05T09:49:19.181Z,5.17
2018-10-05T09:51:47.691Z,5.72
2018-10-05T09:54:16.060Z,7.20
2018-10-05T09:56:44.273Z,5.37
2018-10-05T09:59:12.502Z,5.47
2018-10-05T10:01:47.185Z,4.58
2018-10-05T10:04:15.512Z,5.10
2018-10-05T10:06:43.940Z,5.92
2018-10-05T10:09:12.232Z,6.95
2018-10-05T10:11:40.439Z,6.53
2018-10-05T10:14:09.370Z,6.87
2018-10-05T10:16:37.583Z,5.55
2018-10-05T10:23:59.307Z,7.08
2018-10-05T10:26:27.617Z,4.50
2018-10-05T10:28:56.030Z,7.90
2018-10-05T10:31:24.438Z,4.90
2018-10-05T10:33:52.642Z,5.33
2018-10-05T10:36:21.882Z,6.53
2018-10-05T10:38:50.861Z,4.95
2018-10-05T10:41:19.261Z,4.10
2018-10-05T10:43:47.485Z,4.65
2018-10-05T10:46:15.703Z,3.95
2018-10-05T10:48:44.054Z,4.50
2018-10-05T10:51:12.328Z,4.10
2018-10-05T10:53:40.552Z,4.15
2018-10-05T10:56:09.029Z,5.28
2018-10-05T10:58:37.397Z,2.55
2018-10-05T11:01:06.105Z,4.53
2018-10-05T11:03:35.047Z,2.72
2018-10-05T11:06:03.321Z,3.37
2018-10-05T11:08:31.594Z,3.95
2018-10-05T11:10:59.837Z,4.63
2018-10-05T11:13:28.025Z,5.30
2018-10-05T11:15:56.231Z,1.95
2018-10-05T11:18:24.501Z,4.07
2018-10-05T11:20:52.702Z,3.72
2018-10-05T11:23:21.045Z,3.47
2018-10-05T11:25:49.305Z,4.10
2018-10-05T11:28:17.536Z,3.40
2018-10-05T11:30:45.766Z,5.03
2018-10-05T11:33:14.027Z,3.30
2018-10-05T11:35:42.236Z,5.22
2018-10-05T11:38:11.361Z,5.85
2018-10-05T11:40:39.684Z,5.92
2018-10-05T11:43:08.049Z,3.53
2018-10-05T11:45:36.329Z,2.95
2018-10-05T11:48:04.504Z,3.45
2018-10-05T11:50:32.737Z,3.03
2018-10-05T11:53:00.921Z,2.70
2018-10-05T11:55:29.246Z,2.16
2018-10-05T11:57:57.710Z,3.73
2018-10-05T12:00:25.887Z,3.30
2018-10-05T12:02:54.079Z,3.30
2018-10-05T12:05:22.506Z,3.27
2018-10-05T12:07:50.805Z,2.37
2018-10-05T12:10:19.369Z,3.50
2018-10-05T12:12:47.830Z,3.30
2018-10-05T12:15:16.187Z,1.85
2018-10-05T12:17:45.383Z,3.58
2018-10-05T12:20:13.657Z,2.30
2018-10-05T12:22:42.377Z,1.98
2018-10-05T12:25:10.641Z,4.83
2018-10-05T12:27:38.873Z,2.75
2018-10-05T12:30:07.148Z,4.97
2018-10-05T12:32:35.637Z,2.75
2018-10-05T12:35:04.408Z,2.62
2018-10-05T12:37:32.629Z,2.08
2018-10-05T12:44:54.673Z,3.02
2018-10-05T13:06:03.988Z,4.35
2018-10-05T13:08:32.860Z,2.35
2018-10-05T13:11:01.375Z,3.37
2018-10-05T13:13:30.028Z,5.90
2018-10-05T13:15:58.463Z,4.28
2018-10-05T13:18:27.019Z,3.95
2018-10-05T13:20:55.481Z,2.27
2018-10-05T13:23:23.949Z,4.17
2018-10-05T13:25:52.816Z,2.15
2018-10-05T13:28:21.280Z,3.77
2018-10-05T13:30:50.669Z,2.45
2018-10-05T13:33:19.199Z,2.72
2018-10-05T13:35:47.981Z,3.55
2018-10-05T13:38:16.513Z,2.35
2018-10-05T13:46:31.090Z,2.50
2018-10-05T13:49:00.674Z,2.15
2018-10-05T13:51:29.417Z,1.90
2018-10-05T13:53:57.800Z,2.30
2018-10-05T13:56:26.182Z,4.25
2018-10-05T13:58:54.736Z,4.00
2018-10-05T14:01:23.213Z,2.08
2018-10-05T14:03:52.098Z,1.67
2018-10-05T14:06:20.595Z,3.87
2018-10-05T14:08:49.012Z,2.30
2018-10-05T14:11:17.415Z,2.80
2018-10-05T14:13:46.208Z,3.10
2018-10-05T14:16:15.132Z,2.50
2018-10-05T14:18:43.948Z,2.67
2018-10-05T14:21:13.110Z,2.72
2018-10-05T14:23:43.959Z,2.75
2018-10-05T14:26:16.098Z,2.83
2018-10-05T14:28:46.453Z,1.40
2018-10-05T14:31:15.421Z,1.75
2018-10-05T14:33:44.256Z,1.67
2018-10-05T14:36:13.939Z,3.17
2018-10-05T14:38:43.383Z,4.03
2018-10-05T14:46:57.368Z,2.08
2018-10-05T14:49:26.499Z,2.98
2018-10-05T14:51:54.973Z,4.05
2018-10-05T14:54:24.563Z,3.55
2018-10-05T14:56:53.173Z,4.97
2018-10-05T14:59:21.760Z,4.17
2018-10-05T15:07:36.149Z,2.58
2018-10-05T15:10:04.620Z,4.27
2018-10-05T15:12:35.566Z,2.60
2018-10-05T15:15:04.246Z,4.67
2018-10-05T15:22:25.771Z,3.17
2018-10-05T15:24:54.764Z,2.20
2018-10-05T15:27:25.563Z,4.47
2018-10-05T15:29:54.431Z,3.15
2018-10-05T15:32:24.013Z,3.70
2018-10-05T15:34:52.658Z,4.00
2018-10-05T15:37:21.076Z,3.17
2018-10-05T15:39:49.412Z,2.70
2018-10-05T15:42:17.629Z,2.53
2018-10-05T15:44:46.074Z,3.77
2018-10-05T15:47:19.345Z,4.73
2018-10-05T15:49:48.689Z,2.33
2018-10-05T15:52:17.232Z,3.05
2018-10-05T15:57:29.672Z,1.93
2018-10-05T15:59:57.894Z,3.00
2018-10-05T16:02:26.108Z,1.77
2018-10-05T16:04:54.315Z,3.13
2018-10-05T16:07:22.621Z,2.70
2018-10-05T16:09:50.990Z,4.70
2018-10-05T16:12:19.315Z,2.60
2018-10-05T16:14:48.624Z,4.20
2018-10-05T16:17:16.795Z,2.90
2018-10-05T16:19:45.081Z,6.15
2018-10-05T16:22:13.613Z,3.77
2018-10-05T16:24:43.690Z,6.58
2018-10-05T16:27:12.920Z,4.27
2018-10-05T16:29:42.771Z,5.65
2018-10-05T16:32:11.546Z,4.60
2018-10-05T16:34:39.971Z,3.17
2018-10-05T16:37:08.266Z,4.70
2018-10-05T16:39:36.474Z,2.47
2018-10-05T16:42:04.914Z,4.13
2018-10-05T16:44:33.162Z,2.97
2018-10-05T16:47:01.454Z,2.27
2018-10-05T16:49:29.730Z,4.07
2018-10-05T16:51:58.001Z,4.33
2018-10-05T16:54:26.196Z,5.20
2018-10-05T16:56:54.424Z,3.57
2018-10-05T16:59:22.889Z,4.87
2018-10-05T17:01:51.278Z,2.77
2018-10-05T17:04:20.090Z,5.97
2018-10-05T17:09:28.081Z,6.80
2018-10-05T17:11:56.404Z,4.73
2018-10-05T17:14:24.995Z,4.60
2018-10-05T17:16:53.377Z,4.00
2018-10-05T17:19:21.578Z,4.17
2018-10-05T17:21:49.915Z,6.37
2018-10-05T17:24:18.107Z,6.50
2018-10-05T17:26:46.446Z,9.20
2018-10-05T17:29:14.673Z,6.57
2018-10-05T17:31:43.106Z,5.72
2018-10-05T17:34:11.305Z,6.13
2018-10-05T17:36:39.590Z,5.80
2018-10-05T17:39:09.388Z,3.57
2018-10-05T17:41:38.505Z,5.77
2018-10-05T17:44:06.918Z,8.67
2018-10-05T17:46:35.395Z,5.00
2018-10-05T17:49:04.389Z,9.05
2018-10-05T17:51:34.912Z,6.40
2018-10-05T17:54:03.363Z,3.47
2018-10-05T17:56:31.668Z,5.27
2018-10-05T17:59:00.071Z,4.03
2018-10-05T18:01:28.371Z,4.10
2018-10-05T18:03:56.710Z,7.13
2018-10-05T18:06:25.011Z,5.77
2018-10-05T18:08:53.357Z,8.83
2018-10-05T18:11:21.658Z,4.87
2018-10-05T18:13:50.232Z,5.23
2018-10-05T18:16:19.359Z,7.17
2018-10-05T18:18:48.182Z,4.27
2018-10-05T18:21:23.645Z,6.10
2018-10-05T18:23:51.893Z,9.10
2018-10-05T18:26:20.170Z,6.20
2018-10-05T18:28:48.470Z,7.17
2018-10-05T18:31:17.135Z,6.43
2018-10-05T18:33:45.490Z,5.25
2018-10-05T18:36:14.067Z,8.07
2018-10-05T18:38:45.441Z,5.87
2018-10-05T18:41:16.221Z,7.53
2018-10-05T18:46:33.338Z,7.40
2018-10-05T18:49:02.093Z,6.70
2018-10-05T18:51:30.367Z,6.43
2018-10-05T18:54:05.318Z,5.47
2018-10-05T18:56:45.111Z,7.97
2018-10-05T18:59:19.071Z,8.00
2018-10-05T19:01:47.279Z,7.70
2018-10-05T19:04:15.629Z,5.30
2018-10-05T19:06:43.976Z,6.00
2018-10-05T19:09:13.555Z,8.57
2018-10-05T19:11:42.122Z,6.87
2018-10-05T19:14:10.630Z,7.23
2018-10-05T19:16:39.000Z,9.80
2018-10-05T19:19:08.503Z,6.27
2018-10-05T19:21:36.815Z,9.90
2018-10-05T19:24:05.177Z,6.90
2018-10-05T19:26:33.897Z,5.95
2018-10-05T19:29:02.480Z,6.83
2018-10-05T19:31:32.326Z,8.35
2018-10-05T19:34:00.765Z,6.80
2018-10-05T19:36:29.349Z,5.73
2018-10-05T19:38:57.862Z,6.83
2018-10-05T19:41:27.303Z,6.33
2018-10-05T19:43:55.609Z,7.80
2018-10-05T19:46:23.960Z,10.33
2018-10-05T19:48:52.338Z,6.95
2018-10-05T19:51:20.702Z,11.93
2018-10-05T19:53:49.105Z,5.17
2018-10-05T19:56:18.384Z,6.60
2018-10-05T19:58:48.852Z,7.37
2018-10-05T20:01:17.551Z,7.17
2018-10-05T20:03:46.024Z,6.57
2018-10-05T20:06:14.356Z,5.62
2018-10-05T20:08:42.682Z,6.73
2018-10-05T20:11:11.131Z,6.13
2018-10-05T20:13:39.748Z,8.13
2018-10-05T20:16:09.450Z,6.07
2018-10-05T20:18:39.248Z,6.93
2018-10-05T20:21:07.899Z,9.10
2018-10-05T20:23:43.952Z,6.97
2018-10-05T20:26:12.412Z,5.03
2018-10-05T20:28:41.918Z,6.30
2018-10-05T20:31:11.750Z,7.40
2018-10-05T20:33:41.385Z,9.30
2018-10-05T20:36:09.886Z,4.73
2018-10-05T20:38:45.145Z,6.27
2018-10-05T20:41:13.709Z,8.37
2018-10-05T20:43:42.220Z,10.13
2018-10-05T20:46:10.461Z,7.67
2018-10-05T20:48:38.857Z,7.10
2018-10-05T20:51:07.117Z,6.00
2018-10-05T20:53:35.384Z,7.27
2018-10-05T20:56:03.801Z,6.53
2018-10-05T20:58:33.157Z,6.33
2018-10-05T21:01:01.473Z,6.55
2018-10-05T21:03:29.712Z,10.40
2018-10-05T21:05:58.077Z,5.53
2018-10-05T21:08:26.617Z,7.73
2018-10-05T21:10:54.877Z,6.80
2018-10-05T21:13:23.046Z,5.77
2018-10-05T21:15:51.355Z,6.77
2018-10-05T21:18:19.706Z,6.65
2018-10-05T21:20:48.221Z,6.77
2018-10-05T21:23:17.461Z,9.97
2018-10-05T21:25:45.672Z,7.40
2018-10-05T21:28:14.845Z,6.47
2018-10-05T21:30:43.226Z,8.57
2018-10-05T21:33:11.531Z,5.60
2018-10-05T21:35:41.450Z,6.27
2018-10-05T21:38:09.937Z,8.37
2018-10-05T21:40:38.192Z,9.18
2018-10-05T21:43:06.597Z,13.60
2018-10-05T21:45:35.081Z,8.27
2018-10-05T21:48:03.251Z,7.37
2018-10-05T21:50:31.620Z,8.60
2018-10-05T21:53:01.002Z,6.87
2018-10-05T21:55:29.509Z,9.10
2018-10-05T21:57:57.768Z,6.67
2018-10-05T22:00:29.726Z,8.83
2018-10-05T22:02:58.021Z,7.43
2018-10-05T22:05:26.305Z,5.63
2018-10-05T22:07:54.549Z,6.23
2018-10-05T22:10:22.913Z,6.03
2018-10-05T22:12:52.242Z,7.67
2018-10-05T22:15:20.779Z,11.40
2018-10-05T22:17:50.196Z,8.53
2018-10-05T22:20:18.554Z,7.35
2018-10-05T22:22:49.003Z,7.17
2018-10-05T22:25:18.487Z,10.55
2018-10-05T22:27:46.785Z,11.03
2018-10-05T22:30:14.992Z,7.07
2018-10-05T22:32:43.308Z,7.07
2018-10-05T22:35:12.071Z,8.73
2018-10-05T22:37:40.982Z,10.10
2018-10-05T22:40:09.271Z,12.50
2018-10-05T22:42:44.010Z,5.73
2018-10-05T22:45:12.378Z,9.43
2018-10-05T22:47:40.682Z,9.87
2018-10-05T22:50:08.982Z,11.80
2018-10-05T22:52:37.138Z,9.53
2018-10-05T22:55:05.391Z,8.07
2018-10-05T22:57:33.565Z,7.57
2018-10-05T23:00:02.093Z,11.93
2018-10-05T23:02:30.306Z,7.43
2018-10-05T23:04:58.563Z,9.17
2018-10-05T23:07:26.758Z,9.87
2018-10-05T23:09:55.094Z,10.10
2018-10-05T23:12:23.520Z,8.17
2018-10-05T23:14:52.025Z,8.17
2018-10-05T23:17:20.476Z,8.60
2018-10-05T23:19:48.638Z,6.83
2018-10-05T23:22:16.849Z,10.32
2018-10-05T23:24:44.998Z,9.00
2018-10-05T23:27:14.938Z,6.00
2018-10-05T23:29:43.138Z,7.60
2018-10-05T23:32:11.398Z,7.83
2018-10-05T23:34:39.641Z,7.90
2018-10-05T23:37:07.799Z,10.47
2018-10-05T23:39:36.080Z,9.53
2018-10-05T23:42:04.305Z,6.33
2018-10-05T23:44:33.428Z,6.50
2018-10-05T23:47:01.869Z,8.45
2018-10-05T23:49:30.166Z,7.33
2018-10-05T23:52:04.486Z,11.93
2018-10-05T23:54:32.666Z,7.13
2018-10-05T23:57:01.090Z,8.90
2018-10-05T23:59:29.495Z,10.13
